Terminal Aerodrome Forecast
Issued by NWS

Home | Current Version | Previous Version | Text Only | Print | Product List | Glossary On
Versions: 1 2 3 4 5 6 7 8 9 10 11 12 13 14 15 16 17 18 19 20 21
000
FTUS46 KLOX 280532
TAFSBP
TAF
KSBP 280532Z 2806/2906 31006KT P6SM SCT005
     FM280800 VRB03KT 4SM BR BKN004
     FM281100 00000KT 1/2SM FG VV002
     FM281500 VRB03KT 4SM BR BKN004
     FM281600 30006KT P6SM FEW007
     FM282000 31012KT P6SM SKC
     FM290300 30006KT P6SM SKC=

USA.gov is the U.S. government's official web portal to all federal, state and local government web resources and services.